Devils Lake Regional Airport


Codes: KDVL/DVL
Name: Devils Lake Regional Airport
City: Devils Lake
Country: United States
Elevation: 1456 ft.
Website:
Wikipedia:

Photos at Devils Lake Regional Airport


   Photos courtesy of SpottingLog. You can add your own sightings and photos by signing up for a free trial today.



No photos found.

Weather at Devils Lake Regional Airport


Time (UTC)DescriptionTempratureWindCloud coverageVisibilityPressureHumidity
19-Apr-2024 06:00Overcast Clouds-2°C18 mph, 88%10000m1017hPa65%
19-Apr-2024 09:00Broken Clouds-3°C18 mph, W79%10000m1018hPa66%
19-Apr-2024 12:00Broken Clouds-3°C20 mph, NW84%10000m1019hPa71%
19-Apr-2024 15:00Overcast Clouds-0°C20 mph, NW100%10000m1020hPa57%
19-Apr-2024 18:00Light Snow1°C20 mph, NW100%7065m1021hPa54%
19-Apr-2024 21:00Light Snow3°C22 mph, NW100%10000m1021hPa50%
20-Apr-2024 00:00Light Snow2°C18 mph, NW100%10000m1023hPa61%
20-Apr-2024 03:00Light Snow-0°C16 mph, NW100%2282m1026hPa89%
20-Apr-2024 06:00Light Snow-2°C11 mph, NW100%10000m1028hPa76%
20-Apr-2024 09:00Overcast Clouds-2°C11 mph, NW100%10000m1029hPa73%
20-Apr-2024 12:00Broken Clouds-3°C11 mph, NW62%10000m1030hPa80%
20-Apr-2024 15:00Clear Sky1°C13 mph, NW7%10000m1030hPa55%
20-Apr-2024 18:00Clear Sky6°C16 mph, NW7%10000m1027hPa40%
20-Apr-2024 21:00Clear Sky9°C16 mph, NW4%10000m1025hPa37%
21-Apr-2024 00:00Clear Sky9°C13 mph, NW7%10000m1023hPa39%
21-Apr-2024 03:00Clear Sky4°C7 mph, NW8%10000m1024hPa56%
21-Apr-2024 06:00Clear Sky3°C7 mph, W5%10000m1023hPa65%
21-Apr-2024 09:00Clear Sky1°C7 mph, W0%10000m1023hPa68%
21-Apr-2024 12:00Clear Sky0°C7 mph, W1%10000m1022hPa69%
21-Apr-2024 15:00Clear Sky7°C7 mph, W3%10000m1020hPa41%
21-Apr-2024 18:00Clear Sky11°C9 mph, W3%10000m1017hPa25%
21-Apr-2024 21:00Clear Sky14°C7 mph, SW6%10000m1014hPa22%
22-Apr-2024 00:00Few Clouds14°C7 mph, S11%10000m1012hPa23%
22-Apr-2024 03:00Overcast Clouds10°C7 mph, SE100%10000m1011hPa36%
22-Apr-2024 06:00Overcast Clouds9°C9 mph, SE100%10000m1009hPa45%
22-Apr-2024 09:00Overcast Clouds8°C7 mph, SE100%10000m1008hPa58%
22-Apr-2024 12:00Overcast Clouds7°C4 mph, SE100%10000m1006hPa66%
22-Apr-2024 15:00Overcast Clouds9°C4 mph, SE100%10000m1006hPa62%
22-Apr-2024 18:00Light Rain8°C7 mph, E100%9461m1006hPa77%
22-Apr-2024 21:00Moderate Rain7°C7 mph, NE100%6375m1007hPa87%
23-Apr-2024 00:00Moderate Rain7°C11 mph, NE100%10000m1008hPa87%
23-Apr-2024 03:00Light Rain6°C13 mph, NE100%10000m1011hPa86%
23-Apr-2024 06:00Light Rain4°C16 mph, NE100%10000m1014hPa65%
23-Apr-2024 09:00Overcast Clouds2°C13 mph, N100%10000m1017hPa65%
23-Apr-2024 12:00Overcast Clouds-1°C11 mph, N85%10000m1022hPa70%
23-Apr-2024 15:00Clear Sky3°C11 mph, NE0%10000m1024hPa49%
23-Apr-2024 18:00Clear Sky6°C9 mph, NE0%10000m1025hPa37%
23-Apr-2024 21:00Clear Sky8°C7 mph, NE2%10000m1025hPa32%
24-Apr-2024 00:00Clear Sky8°C4 mph, NE1%10000m1024hPa33%
24-Apr-2024 03:00Clear Sky5°C7 mph, SE3%10000m1026hPa51%